Time;durP1;ratioP1;P1;durP2;ratioP2;P2;SDS_P1;SDS_P2;PMS_P1;PMS_P2;Temp;Humidity;BMP_temperature;BMP_pressure;BME280_temperature;BME280_humidity;BME280_pressure;Samples;Min_cycle;Max_cycle;Signal;HPM_P1;HPM_P2
2022/02/26 05:02:23;;;;;;;15.47;8.10;;;4.00;99.90;;;;;;5061387;23;21019;-65
2022/02/26 05:04:49;;;;;;;14.47;8.87;;;4.00;99.90;;;;;;4956952;29;20789;-65
2022/02/26 05:07:16;;;;;;;15.50;8.43;;;4.10;99.90;;;;;;4956967;29;20459;-65
2022/02/26 05:09:43;;;;;;;11.40;7.73;;;4.10;99.90;;;;;;4958494;29;20482;-65
2022/02/26 05:12:10;;;;;;;11.20;8.67;;;4.10;99.90;;;;;;4957967;29;20477;-65
2022/02/26 05:14:37;;;;;;;15.63;8.50;;;4.10;99.90;;;;;;4963891;28;20481;-65
2022/02/26 05:17:04;;;;;;;19.90;8.10;;;4.00;99.90;;;;;;4959477;28;20453;-65
2022/02/26 05:19:32;;;;;;;11.20;8.13;;;4.00;99.90;;;;;;4958456;28;20925;-65
2022/02/26 05:21:59;;;;;;;10.60;8.33;;;4.00;99.90;;;;;;4963196;28;21014;-65
2022/02/26 05:24:26;;;;;;;12.03;7.60;;;4.00;99.90;;;;;;4966719;28;20459;-65
2022/02/26 05:26:53;;;;;;;12.60;8.57;;;4.00;99.90;;;;;;4957205;28;20466;-65
2022/02/26 05:29:20;;;;;;;18.83;8.20;;;4.10;99.90;;;;;;4957352;28;20440;-65
2022/02/26 05:31:47;;;;;;;12.70;8.10;;;4.10;99.90;;;;;;4959552;28;20610;-65
2022/02/26 05:34:14;;;;;;;15.47;9.03;;;4.10;99.90;;;;;;4961029;28;20464;-65
2022/02/26 05:36:42;;;;;;;15.47;8.53;;;4.10;99.90;;;;;;4965992;28;20467;-66
2022/02/26 05:39:09;;;;;;;12.70;7.27;;;4.10;99.90;;;;;;4964340;28;20482;-65
2022/02/26 05:41:36;;;;;;;16.00;8.37;;;4.10;99.90;;;;;;4961131;28;20506;-65
2022/02/26 05:44:03;;;;;;;12.37;8.33;;;4.10;99.90;;;;;;4980039;28;20453;-66
2022/02/26 05:46:30;;;;;;;15.90;9.20;;;4.10;99.90;;;;;;4982088;28;20478;-65
2022/02/26 05:48:56;;;;;;;15.40;9.37;;;4.00;99.90;;;;;;4982205;28;20446;-66
2022/02/26 05:51:23;;;;;;;16.57;9.77;;;4.00;99.90;;;;;;4981850;28;20465;-67
2022/02/26 05:53:51;;;;;;;11.60;8.33;;;4.00;99.90;;;;;;4982432;28;20461;-66
2022/02/26 05:56:18;;;;;;;16.90;9.20;;;3.90;99.90;;;;;;4982228;28;20450;-65
2022/02/26 05:58:44;;;;;;;12.67;9.13;;;3.90;99.90;;;;;;4978067;28;20527;-65
2022/02/26 06:01:11;;;;;;;15.03;8.73;;;3.90;99.90;;;;;;4961966;28;20497;-65
2022/02/26 06:03:38;;;;;;;16.27;10.00;;;3.90;99.90;;;;;;4964042;28;20980;-65
2022/02/26 06:06:05;;;;;;;16.97;9.03;;;3.90;99.90;;;;;;4960933;29;20469;-65
2022/02/26 06:08:31;;;;;;;13.10;8.47;;;4.00;99.90;;;;;;4962864;28;20461;-65
2022/02/26 06:11:00;;;;;;;20.97;9.73;;;4.00;99.90;;;;;;4962713;28;20487;-66
2022/02/26 06:13:27;;;;;;;16.53;9.83;;;4.00;99.90;;;;;;4963124;28;20462;-65
2022/02/26 06:15:53;;;;;;;14.50;8.87;;;4.00;99.90;;;;;;4963042;28;20463;-66
2022/02/26 06:18:20;;;;;;;14.60;9.10;;;4.00;99.90;;;;;;4965064;28;20488;-66
2022/02/26 06:20:47;;;;;;;20.27;11.20;;;4.10;99.90;;;;;;4964466;28;20481;-65
2022/02/26 06:23:13;;;;;;;14.87;9.80;;;4.10;99.90;;;;;;4964119;29;20463;-65
2022/02/26 06:25:40;;;;;;;14.90;9.30;;;4.10;99.90;;;;;;4964681;28;20461;-66
2022/02/26 06:28:12;;;;;;;14.63;9.47;;;4.10;99.90;;;;;;4962911;28;20455;-65
2022/02/26 06:30:38;;;;;;;14.63;10.23;;;4.10;99.90;;;;;;4962628;28;20477;-65
2022/02/26 06:33:05;;;;;;;16.43;10.53;;;4.10;99.90;;;;;;4962180;29;20466;-68
2022/02/26 06:35:32;;;;;;;24.70;9.87;;;4.10;99.90;;;;;;4960496;29;20462;-65
2022/02/26 06:37:59;;;;;;;13.53;9.67;;;4.10;99.90;;;;;;4960339;28;20485;-65
2022/02/26 06:40:25;;;;;;;18.50;10.20;;;4.10;99.90;;;;;;4960980;28;20846;-65
2022/02/26 06:42:52;;;;;;;15.87;10.13;;;4.20;99.90;;;;;;4958432;28;20472;-65
2022/02/26 06:45:20;;;;;;;18.27;9.80;;;4.20;99.90;;;;;;4959167;29;20968;-64
2022/02/26 06:47:47;;;;;;;20.40;9.97;;;4.10;99.90;;;;;;4959269;28;20454;-64
2022/02/26 06:50:14;;;;;;;18.43;10.50;;;4.20;99.90;;;;;;4959028;28;20514;-64
2022/02/26 06:52:41;;;;;;;20.70;10.00;;;4.20;99.90;;;;;;4959517;29;20459;-64
2022/02/26 06:55:08;;;;;;;13.73;9.73;;;4.30;99.90;;;;;;4958595;29;20464;-64
2022/02/26 06:57:35;;;;;;;17.17;9.73;;;4.30;99.90;;;;;;4959928;28;20564;-64
2022/02/26 07:00:02;;;;;;;16.47;11.27;;;4.30;99.90;;;;;;4959361;28;20467;-65
2022/02/26 07:02:30;;;;;;;19.37;11.30;;;4.40;99.90;;;;;;4959993;29;21017;-66
2022/02/26 07:04:57;;;;;;;16.90;11.47;;;4.40;99.90;;;;;;4962064;29;20449;-66
2022/02/26 07:07:23;;;;;;;21.00;11.20;;;4.40;99.90;;;;;;4960122;29;20459;-65
2022/02/26 07:09:50;;;;;;;21.73;11.40;;;4.40;99.90;;;;;;4970875;29;20466;-67
2022/02/26 07:12:17;;;;;;;18.43;10.43;;;4.40;99.90;;;;;;4965408;29;20486;-65
2022/02/26 07:14:44;;;;;;;15.53;10.57;;;4.50;99.90;;;;;;4960472;29;20973;-65
2022/02/26 07:17:10;;;;;;;17.93;11.33;;;4.50;99.90;;;;;;4960254;29;20507;-66
2022/02/26 07:19:39;;;;;;;13.00;10.10;;;4.60;99.90;;;;;;4959615;29;20467;-64
2022/02/26 07:22:06;;;;;;;15.67;11.10;;;4.70;99.90;;;;;;4966883;29;20486;-65
2022/02/26 07:24:32;;;;;;;14.00;10.30;;;4.70;99.90;;;;;;4966834;29;20867;-65
2022/02/26 07:26:59;;;;;;;14.03;10.37;;;4.70;99.90;;;;;;4959738;29;20485;-66
2022/02/26 07:29:26;;;;;;;15.80;10.27;;;4.80;99.90;;;;;;4960815;29;20464;-65
2022/02/26 07:31:53;;;;;;;17.40;10.97;;;4.80;99.90;;;;;;4960181;29;20483;-65
2022/02/26 07:34:19;;;;;;;18.77;10.50;;;4.80;99.90;;;;;;4960680;29;20809;-65
2022/02/26 07:36:47;;;;;;;15.23;10.10;;;4.80;99.90;;;;;;4959642;29;20457;-65
2022/02/26 07:39:14;;;;;;;18.23;10.23;;;4.90;99.90;;;;;;4959854;29;20902;-65
2022/02/26 07:41:41;;;;;;;17.17;10.80;;;5.10;99.90;;;;;;4959264;29;20479;-65
2022/02/26 07:44:08;;;;;;;19.33;10.87;;;5.10;99.90;;;;;;4958895;29;20459;-65
2022/02/26 07:46:34;;;;;;;16.43;9.93;;;5.10;99.90;;;;;;4958276;29;20464;-65
2022/02/26 07:49:01;;;;;;;15.43;10.10;;;5.10;99.90;;;;;;4958867;28;20536;-64
2022/02/26 07:51:28;;;;;;;12.97;9.90;;;5.10;99.90;;;;;;4959434;29;20476;-65
2022/02/26 07:53:56;;;;;;;19.30;11.90;;;5.10;99.90;;;;;;4959233;28;20456;-66
2022/02/26 07:56:23;;;;;;;17.60;12.30;;;5.20;99.90;;;;;;4962534;29;20481;-66
2022/02/26 07:58:50;;;;;;;24.00;10.60;;;5.30;99.90;;;;;;4961652;29;20476;-65
2022/02/26 08:01:18;;;;;;;15.60;9.73;;;5.40;99.90;;;;;;4970887;28;20498;-65
2022/02/26 08:03:44;;;;;;;17.90;10.67;;;5.50;99.90;;;;;;4978523;28;20475;-65
2022/02/26 08:06:11;;;;;;;19.37;10.87;;;5.50;99.90;;;;;;4978889;29;20451;-65
2022/02/26 08:08:38;;;;;;;15.60;9.60;;;5.50;99.90;;;;;;4969896;29;20597;-65
2022/02/26 08:11:06;;;;;;;17.60;10.70;;;5.50;99.90;;;;;;4967588;28;20471;-66
2022/02/26 08:13:33;;;;;;;14.73;10.57;;;5.60;99.90;;;;;;4977541;29;20570;-65
2022/02/26 08:15:59;;;;;;;19.03;9.97;;;5.60;99.90;;;;;;4979355;29;20443;-65
2022/02/26 08:18:26;;;;;;;13.60;10.43;;;5.60;99.90;;;;;;4979621;28;20535;-66
2022/02/26 08:20:53;;;;;;;18.93;11.70;;;5.70;99.90;;;;;;4979650;29;20510;-65
2022/02/26 08:23:20;;;;;;;18.77;11.40;;;5.50;99.90;;;;;;4979909;28;20452;-65
2022/02/26 08:25:47;;;;;;;15.50;9.93;;;5.70;99.90;;;;;;4979371;29;20494;-66
2022/02/26 08:28:15;;;;;;;18.50;11.20;;;5.70;99.90;;;;;;4979411;28;20438;-65
2022/02/26 08:30:42;;;;;;;18.10;10.77;;;5.70;99.90;;;;;;4979308;28;20472;-66
2022/02/26 08:33:08;;;;;;;22.07;10.33;;;5.90;99.90;;;;;;4979757;29;20466;-65
2022/02/26 08:35:35;;;;;;;16.83;10.70;;;6.00;99.90;;;;;;4979911;28;20465;-65
2022/02/26 08:38:04;;;;;;;15.80;10.67;;;6.30;99.90;;;;;;4979613;28;20447;-65
2022/02/26 08:40:31;;;;;;;12.40;8.83;;;6.40;99.90;;;;;;4978920;29;20436;-66
2022/02/26 08:42:58;;;;;;;13.10;9.50;;;6.60;99.90;;;;;;4979517;28;20440;-67
2022/02/26 08:45:26;;;;;;;17.10;10.13;;;6.90;99.90;;;;;;4979613;28;20468;-67
2022/02/26 08:47:53;;;;;;;15.20;9.47;;;7.10;99.90;;;;;;4979308;29;20448;-67
2022/02/26 08:50:21;;;;;;;25.50;11.07;;;7.40;99.90;;;;;;4978635;28;20471;-67
2022/02/26 08:52:48;;;;;;;13.90;8.90;;;7.60;99.90;;;;;;4972256;28;20443;-67
2022/02/26 08:55:15;;;;;;;12.00;10.00;;;7.80;99.90;;;;;;4957278;28;20457;-67
2022/02/26 08:57:41;;;;;;;13.23;9.20;;;8.00;99.90;;;;;;4956653;28;20819;-67
2022/02/26 09:00:10;;;;;;;13.10;8.73;;;8.20;99.90;;;;;;4956741;28;20483;-67
2022/02/26 09:02:39;;;;;;;15.00;8.20;;;8.20;99.90;;;;;;4956745;28;20452;-67
2022/02/26 09:05:07;;;;;;;10.23;7.13;;;9.00;99.90;;;;;;4956705;28;20452;-68
2022/02/26 09:07:34;;;;;;;11.73;8.90;;;9.80;99.90;;;;;;4960252;28;20806;-68
2022/02/26 09:10:01;;;;;;;15.00;8.40;;;10.00;99.90;;;;;;4960317;28;20463;-67
2022/02/26 09:12:27;;;;;;;14.47;8.10;;;10.30;99.90;;;;;;4960230;28;20542;-67
2022/02/26 09:14:54;;;;;;;13.63;8.43;;;10.40;99.90;;;;;;4960451;28;20518;-67
2022/02/26 09:17:21;;;;;;;12.57;8.73;;;10.70;99.90;;;;;;4961372;28;20447;-67
2022/02/26 09:19:49;;;;;;;10.53;8.10;;;10.70;99.90;;;;;;4960771;28;20479;-67
2022/02/26 09:22:17;;;;;;;13.97;7.93;;;11.10;99.90;;;;;;4960566;28;20534;-68
2022/02/26 09:24:44;;;;;;;12.60;7.33;;;11.60;99.90;;;;;;4960236;28;20459;-67
2022/02/26 09:27:10;;;;;;;13.23;7.20;;;12.00;99.90;;;;;;4962295;28;20463;-68
2022/02/26 09:29:37;;;;;;;13.47;8.43;;;12.20;99.70;;;;;;4965409;28;20436;-67
2022/02/26 09:32:05;;;;;;;10.00;7.57;;;12.20;98.30;;;;;;4965316;28;20483;-66
2022/02/26 09:34:31;;;;;;;12.33;7.80;;;11.70;97.40;;;;;;4964149;28;20994;-66
2022/02/26 09:36:59;;;;;;;11.73;7.80;;;12.40;98.40;;;;;;4970183;28;20471;-67
2022/02/26 09:39:26;;;;;;;11.47;9.40;;;12.70;97.20;;;;;;4974838;28;20515;-67
2022/02/26 09:41:53;;;;;;;9.57;7.50;;;12.70;96.40;;;;;;4965925;28;20565;-66
2022/02/26 09:44:21;;;;;;;10.47;7.37;;;12.80;96.20;;;;;;4962980;28;20459;-67
2022/02/26 09:46:48;;;;;;;12.67;7.20;;;12.50;94.60;;;;;;4962308;28;20483;-67
2022/02/26 09:49:15;;;;;;;12.90;8.60;;;12.10;94.00;;;;;;4969742;28;20459;-67
2022/02/26 09:51:44;;;;;;;10.20;7.13;;;11.30;95.20;;;;;;4970248;28;20475;-67
2022/02/26 09:54:16;;;;;;;15.07;7.37;;;11.60;95.60;;;;;;4966152;28;20465;-66
2022/02/26 09:56:42;;;;;;;9.80;7.23;;;11.60;95.50;;;;;;4962311;28;20444;-66
2022/02/26 09:59:10;;;;;;;9.80;7.00;;;11.70;95.70;;;;;;4961508;28;20486;-66
2022/02/26 10:01:55;;;;;;;7.37;5.13;;;11.80;95.30;;;;;;4960368;28;20483;-67
2022/02/26 10:04:21;;;;;;;8.83;6.00;;;12.80;92.50;;;;;;4971584;28;20772;-67
2022/02/26 10:06:48;;;;;;;11.23;5.33;;;13.50;90.20;;;;;;4981040;28;20448;-66
2022/02/26 10:09:17;;;;;;;13.87;5.40;;;13.70;89.40;;;;;;4966639;28;20450;-67
2022/02/26 10:11:44;;;;;;;8.13;6.60;;;13.10;90.10;;;;;;4960401;28;20991;-67
2022/02/26 10:14:15;;;;;;;9.23;5.67;;;12.70;91.60;;;;;;4971795;28;20447;-67
2022/02/26 10:16:47;;;;;;;8.27;4.40;;;12.60;90.60;;;;;;4970062;28;20444;-67
2022/02/26 10:19:20;;;;;;;7.30;4.17;;;12.30;86.40;;;;;;4964780;28;20488;-68
2022/02/26 10:21:47;;;;;;;6.40;3.50;;;12.60;89.30;;;;;;4961818;28;20472;-68
2022/02/26 10:24:16;;;;;;;5.63;3.17;;;13.70;85.90;;;;;;4963220;28;20447;-68
2022/02/26 10:26:48;;;;;;;9.67;3.63;;;13.90;80.00;;;;;;4959196;28;20456;-67
2022/02/26 10:29:16;;;;;;;9.80;3.13;;;14.30;73.20;;;;;;4959059;28;20531;-67
2022/02/26 10:31:44;;;;;;;10.00;3.47;;;15.00;71.80;;;;;;4959375;28;20840;-68
2022/02/26 10:34:29;;;;;;;7.07;4.23;;;15.80;66.80;;;;;;4958968;28;20515;-68
2022/02/26 10:36:57;;;;;;;6.57;3.80;;;15.30;68.30;;;;;;4959397;28;20440;-69
2022/02/26 10:39:29;;;;;;;5.57;3.60;;;15.40;67.20;;;;;;4959199;28;20483;-68
2022/02/26 10:41:57;;;;;;;7.10;2.80;;;15.40;64.20;;;;;;4958699;28;20482;-68
2022/02/26 10:44:24;;;;;;;5.60;2.47;;;16.00;63.50;;;;;;4958900;28;20452;-69
2022/02/26 10:46:53;;;;;;;4.50;2.60;;;16.70;57.50;;;;;;4958659;28;20840;-68
2022/02/26 10:49:20;;;;;;;6.27;2.30;;;17.40;58.00;;;;;;4959048;28;20436;-68
2022/02/26 10:51:49;;;;;;;4.60;2.63;;;18.30;55.20;;;;;;4959283;28;20476;-68
2022/02/26 10:54:21;;;;;;;4.33;2.33;;;18.90;53.20;;;;;;4958548;28;20785;-68
2022/02/26 10:56:50;;;;;;;5.00;2.37;;;18.80;53.70;;;;;;4958538;28;20495;-67
2022/02/26 10:59:29;;;;;;;5.10;2.40;;;19.80;53.10;;;;;;4958397;28;20480;-67
2022/02/26 11:02:01;;;;;;;6.27;2.10;;;20.50;47.30;;;;;;4957986;28;20487;-67
2022/02/26 11:04:28;;;;;;;6.60;2.20;;;18.50;44.40;;;;;;4958754;28;20468;-68
2022/02/26 11:06:55;;;;;;;8.63;3.17;;;17.30;48.20;;;;;;4957804;28;20966;-67
2022/02/26 11:09:22;;;;;;;6.73;2.80;;;16.40;48.40;;;;;;4958233;28;20459;-68
2022/02/26 11:11:51;;;;;;;10.40;2.77;;;15.00;49.30;;;;;;4957746;28;21041;-67
2022/02/26 11:14:20;;;;;;;5.63;2.57;;;13.40;51.40;;;;;;4957710;28;20824;-67
2022/02/26 11:16:49;;;;;;;9.30;2.47;;;12.70;55.40;;;;;;4958192;28;20840;-69
2022/02/26 11:19:20;;;;;;;7.30;2.80;;;12.20;54.90;;;;;;4958200;28;20516;-68
2022/02/26 11:21:48;;;;;;;5.87;3.20;;;12.70;56.80;;;;;;4958023;28;20534;-68
2022/02/26 11:24:17;;;;;;;3.60;2.50;;;12.60;57.50;;;;;;4958287;28;20492;-68
2022/02/26 11:26:44;;;;;;;7.83;2.40;;;12.20;56.60;;;;;;4957770;28;20467;-67
2022/02/26 11:29:13;;;;;;;8.37;3.30;;;12.10;57.10;;;;;;4957301;28;20459;-68
2022/02/26 11:31:45;;;;;;;8.40;2.63;;;11.80;58.90;;;;;;4958108;28;20518;-67
2022/02/26 11:34:11;;;;;;;6.70;2.83;;;11.50;59.00;;;;;;4958043;28;20444;-67
2022/02/26 11:36:50;;;;;;;6.57;2.93;;;11.00;61.90;;;;;;4957294;28;20809;-67
2022/02/26 11:39:28;;;;;;;6.33;2.80;;;10.80;62.30;;;;;;4958876;28;20482;-67
2022/02/26 11:42:28;;;;;;;9.43;3.13;;;10.60;64.50;;;;;;4957848;28;20475;-66
2022/02/26 11:45:02;;;;;;;6.57;2.87;;;10.50;64.80;;;;;;4959452;28;20971;-67
2022/02/26 11:47:51;;;;;;;10.13;3.20;;;10.50;66.50;;;;;;4968742;28;20431;-67
2022/02/26 11:50:21;;;;;;;5.40;2.33;;;10.40;65.90;;;;;;4963934;28;20443;-66
2022/02/26 11:52:51;;;;;;;7.23;2.67;;;9.90;67.70;;;;;;4958690;28;20460;-67
2022/02/26 11:55:31;;;;;;;5.93;2.60;;;9.50;67.70;;;;;;4958108;28;20832;-66
2022/02/26 11:58:01;;;;;;;5.00;2.53;;;8.90;69.30;;;;;;4958402;28;20448;-67
2022/02/26 12:00:32;;;;;;;6.60;2.40;;;8.80;72.20;;;;;;4959450;28;20491;-68
2022/02/26 12:03:28;;;;;;;6.10;2.53;;;9.00;70.80;;;;;;4959497;28;20921;-67
2022/02/26 12:05:58;;;;;;;6.13;1.90;;;9.20;75.40;;;;;;4959066;28;20452;-67
2022/02/26 12:08:39;;;;;;;8.37;4.43;;;9.40;73.60;;;;;;4957265;28;20456;-67
2022/02/26 12:11:08;;;;;;;6.27;2.90;;;9.80;72.40;;;;;;4957573;28;20476;-67
2022/02/26 12:13:36;;;;;;;10.20;2.73;;;10.00;71.40;;;;;;4957112;28;20951;-67
2022/02/26 12:16:25;;;;;;;7.60;3.03;;;10.00;69.90;;;;;;4958957;28;20457;-67
2022/02/26 12:18:56;;;;;;;7.80;3.20;;;9.80;70.00;;;;;;4959729;28;20900;-67
2022/02/26 12:21:23;;;;;;;13.43;3.20;;;9.70;70.30;;;;;;4957409;28;20495;-67
2022/02/26 12:24:14;;;;;;;9.47;3.43;;;9.70;73.20;;;;;;4961353;28;20488;-68
2022/02/26 12:27:01;;;;;;;11.97;3.03;;;9.50;74.10;;;;;;4976943;28;20440;-68
2022/02/26 12:29:49;;;;;;;6.13;3.00;;;9.70;73.60;;;;;;4960764;28;20443;-68
2022/02/26 12:32:18;;;;;;;5.30;3.10;;;9.90;98.70;;;;;;4957115;28;20538;-68
2022/02/26 12:34:54;;;;;;;12.60;3.10;;;10.40;90.60;;;;;;4957636;28;20451;-68
2022/02/26 12:37:24;;;;;;;6.80;3.40;;;10.60;93.10;;;;;;4956944;28;20451;-68
2022/02/26 12:39:53;;;;;;;10.83;3.07;;;10.50;89.50;;;;;;4956268;28;20879;-68
2022/02/26 12:42:21;;;;;;;9.90;2.40;;;10.60;89.60;;;;;;4959721;28;20483;-68
2022/02/26 12:44:50;;;;;;;5.37;2.57;;;10.40;90.70;;;;;;4960891;28;20456;-67
2022/02/26 12:47:19;;;;;;;8.03;2.40;;;10.50;83.60;;;;;;4962903;28;20463;-67
2022/02/26 12:49:46;;;;;;;7.07;2.73;;;10.60;85.20;;;;;;4959163;28;20472;-67
2022/02/26 12:52:13;;;;;;;6.67;2.37;;;11.10;91.50;;;;;;4958891;28;20483;-67
2022/02/26 12:54:41;;;;;;;8.37;3.00;;;11.30;81.70;;;;;;4957800;28;20448;-66
2022/02/26 12:57:08;;;;;;;7.60;2.60;;;11.50;77.50;;;;;;4957629;28;20462;-67
2022/02/26 12:59:36;;;;;;;5.83;2.83;;;11.00;76.10;;;;;;4957590;28;20463;-67
2022/02/26 13:02:04;;;;;;;13.80;2.67;;;10.90;74.90;;;;;;4957330;28;20487;-68
2022/02/26 13:04:36;;;;;;;7.17;2.03;;;10.70;75.50;;;;;;4957108;28;20448;-67
2022/02/26 13:07:07;;;;;;;8.73;2.80;;;10.50;74.80;;;;;;4956945;28;20443;-66
2022/02/26 13:09:35;;;;;;;7.60;3.00;;;9.70;77.30;;;;;;4957440;28;20868;-67
2022/02/26 13:12:04;;;;;;;8.17;2.27;;;9.30;78.40;;;;;;4957558;28;20471;-67
2022/02/26 13:14:31;;;;;;;5.17;2.30;;;9.10;80.60;;;;;;4957225;28;20459;-67
2022/02/26 13:17:00;;;;;;;4.20;2.40;;;9.00;81.40;;;;;;4956836;28;20467;-67
2022/02/26 13:19:28;;;;;;;6.27;2.30;;;8.70;80.60;;;;;;4971594;28;20451;-67
2022/02/26 13:21:58;;;;;;;8.30;2.83;;;8.80;81.60;;;;;;4961387;28;20486;-67
2022/02/26 13:24:32;;;;;;;7.70;2.80;;;8.80;80.40;;;;;;4956289;28;20451;-67
2022/02/26 13:27:03;;;;;;;12.27;2.53;;;8.70;80.40;;;;;;4957611;28;20435;-67
2022/02/26 13:29:34;;;;;;;8.90;2.47;;;8.80;82.60;;;;;;4961004;28;20440;-68
2022/02/26 13:32:01;;;;;;;8.33;2.80;;;8.60;82.70;;;;;;4965767;28;20479;-67
2022/02/26 13:34:28;;;;;;;8.93;2.20;;;8.70;83.80;;;;;;4957325;28;20462;-67
2022/02/26 13:36:56;;;;;;;6.73;1.80;;;8.70;83.20;;;;;;4956246;28;20459;-67
2022/02/26 13:39:24;;;;;;;5.97;2.43;;;8.80;82.20;;;;;;4956371;28;20460;-67
2022/02/26 13:42:01;;;;;;;12.27;2.50;;;9.10;84.10;;;;;;4955873;28;20521;-67
2022/02/26 13:44:33;;;;;;;5.90;2.30;;;9.30;83.40;;;;;;4956242;28;20935;-67
2022/02/26 13:46:59;;;;;;;7.93;2.43;;;8.80;80.00;;;;;;4956552;28;20491;-67
2022/02/26 13:49:29;;;;;;;4.07;2.20;;;8.60;77.70;;;;;;4955523;28;20947;-67
2022/02/26 13:51:58;;;;;;;8.67;2.23;;;8.40;80.50;;;;;;4960554;28;20478;-67
2022/02/26 13:54:24;;;;;;;6.40;2.57;;;8.20;80.20;;;;;;4968573;28;20530;-66
2022/02/26 13:56:56;;;;;;;6.63;2.60;;;8.20;81.30;;;;;;4965004;28;20456;-66
2022/02/26 13:59:28;;;;;;;9.20;2.63;;;8.50;83.60;;;;;;4959399;28;20448;-67
2022/02/26 14:01:57;;;;;;;7.77;2.60;;;8.90;82.30;;;;;;4958878;28;20513;-67
2022/02/26 14:04:25;;;;;;;7.00;2.93;;;9.10;80.50;;;;;;4959428;28;20459;-67
2022/02/26 14:06:53;;;;;;;4.23;2.43;;;9.10;81.00;;;;;;4959100;28;20455;-67
2022/02/26 14:09:23;;;;;;;4.23;2.43;;;8.90;79.20;;;;;;4959054;28;20459;-66
2022/02/26 14:11:55;;;;;;;4.20;2.37;;;8.60;78.50;;;;;;4959230;28;20472;-66
2022/02/26 14:14:27;;;;;;;6.90;2.00;;;8.70;78.60;;;;;;4959895;28;20478;-67
2022/02/26 14:17:00;;;;;;;2.97;1.70;;;8.60;76.70;;;;;;4959612;28;20800;-67
2022/02/26 14:19:28;;;;;;;4.20;1.70;;;8.70;76.30;;;;;;4959716;28;20444;-66
2022/02/26 14:21:57;;;;;;;4.30;1.40;;;9.00;74.60;;;;;;4958918;28;20742;-67
2022/02/26 14:24:27;;;;;;;3.40;1.30;;;8.90;74.50;;;;;;4959426;28;20464;-67
2022/02/26 14:26:57;;;;;;;5.13;1.80;;;9.00;74.10;;;;;;4959098;28;20463;-67
2022/02/26 14:29:29;;;;;;;5.43;1.73;;;9.00;72.90;;;;;;4958786;28;20444;-67
2022/02/26 14:32:04;;;;;;;4.40;1.63;;;9.00;73.90;;;;;;4959570;28;20471;-67
2022/02/26 14:34:31;;;;;;;6.57;1.70;;;9.10;74.50;;;;;;4958701;28;20486;-67
2022/02/26 14:36:59;;;;;;;7.30;2.07;;;9.10;73.60;;;;;;4958841;28;20464;-67
2022/02/26 14:39:27;;;;;;;2.70;1.40;;;9.00;74.20;;;;;;4958337;28;21130;-69
2022/02/26 14:41:55;;;;;;;5.90;2.10;;;9.00;79.00;;;;;;4959997;28;20488;-67
2022/02/26 14:44:23;;;;;;;5.30;1.90;;;9.10;76.30;;;;;;4963511;28;20464;-67
2022/02/26 14:46:51;;;;;;;2.77;1.57;;;9.00;74.50;;;;;;4958420;28;20460;-66
2022/02/26 14:49:18;;;;;;;4.87;2.00;;;8.90;74.80;;;;;;4958297;28;20974;-67
2022/02/26 14:51:46;;;;;;;4.63;2.10;;;8.90;74.90;;;;;;4978600;28;20483;-67
2022/02/26 14:54:14;;;;;;;2.70;1.50;;;8.80;75.70;;;;;;4967559;28;20448;-68
2022/02/26 14:56:42;;;;;;;9.33;2.07;;;8.40;74.40;;;;;;4960073;28;20452;-67
2022/02/26 14:59:09;;;;;;;4.07;1.60;;;8.30;76.40;;;;;;4959604;28;20466;-67
2022/02/26 15:01:35;;;;;;;6.80;2.00;;;8.30;75.70;;;;;;4959507;28;20492;-66
2022/02/26 15:04:02;;;;;;;5.00;1.90;;;7.90;77.50;;;;;;4957715;28;20464;-67
2022/02/26 15:06:29;;;;;;;1.83;1.50;;;8.00;79.40;;;;;;4958599;28;20466;-67
2022/02/26 15:08:56;;;;;;;2.97;1.60;;;8.10;78.40;;;;;;4958686;28;20466;-66
2022/02/26 15:11:23;;;;;;;4.40;1.80;;;8.10;76.50;;;;;;4958191;28;20475;-68
2022/02/26 15:13:51;;;;;;;7.33;1.87;;;8.10;77.40;;;;;;4958849;28;20468;-66
2022/02/26 15:16:18;;;;;;;6.03;2.00;;;8.00;76.00;;;;;;4958531;28;20451;-67
2022/02/26 15:18:45;;;;;;;5.60;2.10;;;7.90;76.00;;;;;;4959778;28;20460;-67
2022/02/26 15:21:12;;;;;;;7.10;1.90;;;7.80;76.60;;;;;;4958150;28;20491;-67
2022/02/26 15:23:39;;;;;;;4.53;2.00;;;7.70;77.40;;;;;;4958716;28;20943;-67
2022/02/26 15:26:06;;;;;;;3.33;1.80;;;7.90;78.40;;;;;;4958434;28;20456;-67
2022/02/26 15:28:34;;;;;;;1.93;1.70;;;7.80;76.40;;;;;;4958442;28;20482;-66
2022/02/26 15:31:03;;;;;;;3.63;1.43;;;8.00;78.00;;;;;;4958621;28;20484;-66
2022/02/26 15:33:30;;;;;;;5.67;1.80;;;8.10;77.80;;;;;;4957956;28;20462;-67
2022/02/26 15:35:57;;;;;;;3.73;2.13;;;8.10;77.10;;;;;;4958478;28;20451;-67
2022/02/26 15:38:25;;;;;;;4.57;2.23;;;8.10;76.90;;;;;;4958217;28;20452;-67
2022/02/26 15:40:52;;;;;;;5.27;1.83;;;8.10;78.60;;;;;;4958240;28;20495;-67
2022/02/26 15:43:18;;;;;;;5.23;2.27;;;8.00;77.20;;;;;;4957968;28;20460;-66
2022/02/26 15:45:45;;;;;;;5.20;2.10;;;7.90;76.40;;;;;;4958181;28;20456;-67
2022/02/26 15:48:13;;;;;;;4.13;2.33;;;7.70;76.40;;;;;;4958589;28;20862;-67
2022/02/26 15:50:40;;;;;;;4.50;1.80;;;7.70;75.90;;;;;;4971818;28;20475;-67
2022/02/26 15:53:07;;;;;;;3.53;1.57;;;7.60;76.10;;;;;;4966383;28;20452;-67
2022/02/26 15:55:34;;;;;;;4.23;1.80;;;7.50;76.10;;;;;;4964691;28;20903;-67
2022/02/26 15:58:02;;;;;;;9.50;3.23;;;7.40;76.90;;;;;;4961872;28;20952;-67
2022/02/26 16:00:29;;;;;;;3.73;2.13;;;7.50;77.70;;;;;;4960534;28;20448;-66
2022/02/26 16:02:56;;;;;;;6.80;2.33;;;7.40;78.30;;;;;;4960749;28;20448;-66
2022/02/26 16:05:24;;;;;;;4.70;2.00;;;7.40;78.50;;;;;;4960088;28;20519;-66
2022/02/26 16:07:51;;;;;;;5.73;3.67;;;7.40;79.60;;;;;;4959532;28;20511;-67
2022/02/26 16:10:18;;;;;;;8.60;3.17;;;7.30;79.00;;;;;;4959135;28;20439;-66
2022/02/26 16:12:46;;;;;;;8.83;3.20;;;7.10;78.90;;;;;;4958398;28;20452;-66
2022/02/26 16:15:13;;;;;;;8.90;3.63;;;7.20;80.00;;;;;;4960126;28;20462;-66
2022/02/26 16:17:41;;;;;;;5.40;2.03;;;7.20;80.10;;;;;;4959768;28;20433;-66
2022/02/26 16:20:09;;;;;;;4.40;1.87;;;7.20;81.50;;;;;;4958732;28;20475;-66
2022/02/26 16:22:37;;;;;;;6.77;2.20;;;7.10;80.40;;;;;;4962759;28;20479;-64
2022/02/26 16:25:06;;;;;;;4.03;2.40;;;7.10;81.80;;;;;;4971777;28;20435;-64
2022/02/26 16:27:33;;;;;;;7.57;2.57;;;7.20;81.80;;;;;;4960428;28;20943;-64
2022/02/26 16:30:01;;;;;;;11.03;2.23;;;7.30;81.90;;;;;;4960675;28;20447;-64
2022/02/26 16:32:28;;;;;;;12.37;3.23;;;7.30;81.40;;;;;;4960598;28;20476;-64
2022/02/26 16:34:56;;;;;;;8.60;2.87;;;7.10;81.00;;;;;;4958242;28;20467;-64
2022/02/26 16:37:23;;;;;;;4.30;2.07;;;7.10;82.30;;;;;;4970295;28;20437;-65
2022/02/26 16:39:51;;;;;;;8.50;2.47;;;7.10;82.10;;;;;;4965418;28;20463;-64
2022/02/26 16:42:18;;;;;;;5.60;1.90;;;7.10;82.70;;;;;;4957536;28;20479;-64
2022/02/26 16:44:45;;;;;;;4.90;1.70;;;7.00;84.00;;;;;;4967450;28;20452;-65
2022/02/26 16:47:12;;;;;;;10.13;2.13;;;7.10;84.40;;;;;;4957399;28;20455;-66
2022/02/26 16:49:39;;;;;;;9.33;2.23;;;7.10;84.00;;;;;;4974460;28;20451;-65
2022/02/26 16:52:07;;;;;;;8.00;2.50;;;7.10;83.40;;;;;;4975693;28;20492;-65
2022/02/26 16:54:36;;;;;;;5.60;1.77;;;6.90;83.40;;;;;;4975776;28;20487;-65
2022/02/26 16:57:04;;;;;;;4.83;1.53;;;6.90;84.20;;;;;;4975472;28;20480;-65
2022/02/26 16:59:31;;;;;;;6.13;2.30;;;6.90;83.70;;;;;;4975083;28;20458;-65
2022/02/26 17:01:58;;;;;;;6.60;2.93;;;6.80;84.20;;;;;;4975532;28;20492;-65
2022/02/26 17:04:24;;;;;;;3.53;1.63;;;6.80;84.00;;;;;;4975580;28;20451;-65
2022/02/26 17:06:51;;;;;;;7.70;1.93;;;6.70;84.30;;;;;;4975861;28;20459;-65
2022/02/26 17:09:18;;;;;;;5.67;2.43;;;6.70;85.20;;;;;;4975390;28;20442;-65
2022/02/26 17:11:45;;;;;;;3.27;1.67;;;6.70;85.40;;;;;;4974763;28;20456;-65
2022/02/26 17:14:13;;;;;;;6.40;2.20;;;6.70;85.40;;;;;;4974161;28;20461;-65
2022/02/26 17:16:40;;;;;;;4.87;1.97;;;6.70;85.80;;;;;;4975079;28;20463;-65
2022/02/26 17:19:07;;;;;;;7.37;2.50;;;6.60;86.70;;;;;;4958374;28;20455;-65
2022/02/26 17:21:34;;;;;;;4.77;2.50;;;6.60;86.50;;;;;;4956263;28;20490;-65
2022/02/26 17:24:01;;;;;;;4.23;2.77;;;6.50;86.80;;;;;;4956520;28;20459;-65
2022/02/26 17:26:28;;;;;;;4.10;2.20;;;6.50;87.80;;;;;;4963032;28;20452;-65
2022/02/26 17:28:55;;;;;;;3.13;2.37;;;6.40;87.40;;;;;;4968648;28;20464;-66
2022/02/26 17:31:23;;;;;;;6.47;2.00;;;6.40;88.30;;;;;;4969258;28;20570;-66
2022/02/26 17:33:50;;;;;;;7.70;2.23;;;6.40;88.10;;;;;;4960203;28;20456;-65
2022/02/26 17:36:18;;;;;;;3.80;2.40;;;6.30;89.40;;;;;;4960360;28;20491;-65
2022/02/26 17:38:45;;;;;;;7.70;2.60;;;6.20;90.00;;;;;;4961160;28;20463;-65
2022/02/26 17:41:11;;;;;;;5.73;2.50;;;6.20;90.10;;;;;;4960385;28;20491;-66
2022/02/26 17:43:38;;;;;;;7.50;3.10;;;6.10;90.30;;;;;;4959957;28;20988;-65
2022/02/26 17:46:05;;;;;;;4.60;2.20;;;6.00;90.10;;;;;;4961159;28;20459;-65
2022/02/26 17:48:33;;;;;;;5.20;2.40;;;6.00;90.30;;;;;;4972203;28;20436;-66
2022/02/26 17:51:00;;;;;;;4.63;2.27;;;6.00;90.70;;;;;;4982758;28;20452;-65
2022/02/26 17:53:27;;;;;;;4.00;2.47;;;5.90;91.00;;;;;;4982640;28;20439;-65
2022/02/26 17:55:54;;;;;;;7.10;2.80;;;5.90;91.20;;;;;;4972538;28;20439;-66